Time;durP1;ratioP1;P1;durP2;ratioP2;P2;SDS_P1;SDS_P2;PMS_P1;PMS_P2;Temp;Humidity;BMP_temperature;BMP_pressure;BME280_temperature;BME280_humidity;BME280_pressure;Samples;Min_cycle;Max_cycle;Signal;HPM_P1;HPM_P2
2023/10/22 00:01:48;;;;;;;8.15;2.75;;;12.60;99.90;;;;;;4970423;28;89042;-33
2023/10/22 00:04:13;;;;;;;1.35;1.25;;;12.60;99.90;;;;;;4972126;28;88225;-31
2023/10/22 00:06:39;;;;;;;5.22;1.70;;;12.60;99.90;;;;;;4963852;28;91484;-33
2023/10/22 00:09:04;;;;;;;4.15;2.13;;;12.60;99.90;;;;;;4977034;28;90930;-33
2023/10/22 00:11:30;;;;;;;3.85;2.10;;;12.60;99.90;;;;;;4967289;28;92588;-32
2023/10/22 00:13:56;;;;;;;4.68;2.65;;;12.60;99.90;;;;;;4976231;28;89268;-32
2023/10/22 00:16:21;;;;;;;4.88;2.05;;;12.70;99.90;;;;;;4965089;28;90625;-33
2023/10/22 00:18:47;;;;;;;3.70;1.38;;;12.70;99.90;;;;;;4943041;28;89904;-32
2023/10/22 00:21:12;;;;;;;2.95;1.50;;;12.70;99.90;;;;;;4950385;28;89663;-32
2023/10/22 00:23:38;;;;;;;3.40;2.35;;;12.70;99.90;;;;;;4973107;28;89557;-33
2023/10/22 00:26:03;;;;;;;2.13;1.77;;;12.70;99.90;;;;;;4969728;28;90108;-33
2023/10/22 00:28:29;;;;;;;8.35;1.83;;;12.70;99.90;;;;;;4958019;28;89073;-32
2023/10/22 00:30:55;;;;;;;5.50;1.60;;;12.70;99.90;;;;;;4958332;28;87983;-32
2023/10/22 00:33:20;;;;;;;6.03;2.10;;;12.80;99.90;;;;;;4961068;28;89867;-30
2023/10/22 00:35:58;;;;;;;2.40;2.03;;;12.80;99.90;;;;;;4968294;28;90360;-30
2023/10/22 00:38:25;;;;;;;;;;;12.90;99.90;;;;;;4958497;28;88091;-32
2023/10/22 00:40:51;;;;;;;4.82;1.75;;;12.90;99.90;;;;;;4970891;28;89757;-34
2023/10/22 00:43:17;;;;;;;2.65;1.30;;;13.00;99.90;;;;;;4960614;28;89072;-33
2023/10/22 00:45:42;;;;;;;8.60;1.88;;;13.00;99.90;;;;;;4958331;28;92197;-33
2023/10/22 00:48:09;;;;;;;3.97;1.50;;;13.00;99.90;;;;;;4954346;28;89352;-32
2023/10/22 00:50:35;;;;;;;1.95;1.30;;;13.00;99.90;;;;;;4950436;28;88328;-32
2023/10/22 00:53:03;;;;;;;3.90;1.55;;;13.10;99.90;;;;;;4970496;28;89823;-33
2023/10/22 00:55:29;;;;;;;3.97;1.87;;;13.00;99.90;;;;;;4951771;28;89795;-31
2023/10/22 00:57:57;;;;;;;0.88;0.85;;;13.10;99.90;;;;;;4951473;28;90710;-33
2023/10/22 01:00:23;;;;;;;2.43;1.60;;;13.10;99.90;;;;;;4951387;28;89306;-33
2023/10/22 01:02:49;;;;;;;1.63;1.23;;;13.10;99.90;;;;;;4964950;28;89267;-33
2023/10/22 01:05:14;;;;;;;5.45;2.15;;;13.10;99.90;;;;;;4950605;28;90060;-33
2023/10/22 01:07:40;;;;;;;6.18;1.75;;;13.10;99.90;;;;;;4959482;28;89888;-32
2023/10/22 01:10:06;;;;;;;5.18;1.60;;;13.10;99.90;;;;;;4951065;28;89778;-32
2023/10/22 01:12:37;;;;;;;9.20;1.80;;;13.10;99.90;;;;;;4948120;28;87659;-30
2023/10/22 01:15:04;;;;;;;1.33;1.23;;;13.20;99.90;;;;;;4950771;28;89205;-33
2023/10/22 01:17:30;;;;;;;1.27;1.08;;;13.10;99.90;;;;;;4944546;28;88852;-33
2023/10/22 01:19:55;;;;;;;4.68;1.75;;;13.10;99.90;;;;;;4943975;28;89661;-32
2023/10/22 01:22:21;;;;;;;3.45;1.88;;;13.10;99.90;;;;;;4942736;28;89088;-33
2023/10/22 01:24:47;;;;;;;7.45;1.75;;;13.10;99.90;;;;;;4956576;28;90295;-30
2023/10/22 01:27:12;;;;;;;1.75;1.33;;;13.20;99.90;;;;;;4954477;28;90169;-31
2023/10/22 01:29:38;;;;;;;1.48;1.38;;;13.20;99.90;;;;;;4956090;28;89313;-31
2023/10/22 01:32:04;;;;;;;8.38;1.73;;;13.20;99.90;;;;;;4942269;28;88928;-32
2023/10/22 01:34:30;;;;;;;1.67;0.95;;;13.20;99.90;;;;;;4944908;28;90158;-33
2023/10/22 01:36:55;;;;;;;2.22;1.77;;;13.20;99.90;;;;;;4943765;28;89615;-32
2023/10/22 01:39:22;;;;;;;1.85;1.50;;;13.20;99.90;;;;;;4955838;28;88936;-34
2023/10/22 01:41:49;;;;;;;2.88;1.27;;;13.20;99.90;;;;;;4944015;28;89268;-34
2023/10/22 01:44:15;;;;;;;2.13;1.48;;;13.20;99.90;;;;;;4958811;28;88963;-32
2023/10/22 01:46:40;;;;;;;1.52;1.42;;;13.20;99.90;;;;;;4935837;28;89710;-31
2023/10/22 01:49:06;;;;;;;3.05;1.98;;;13.10;99.90;;;;;;4945720;28;90224;-32
2023/10/22 01:51:32;;;;;;;0.77;0.77;;;13.10;99.90;;;;;;4956591;28;89209;-34
2023/10/22 01:53:58;;;;;;;6.10;1.75;;;13.10;99.90;;;;;;4951786;28;90272;-31
2023/10/22 01:56:24;;;;;;;2.00;1.58;;;13.00;99.90;;;;;;4935304;28;89367;-32
2023/10/22 01:58:50;;;;;;;1.90;0.70;;;13.00;99.90;;;;;;4948840;28;89242;-33
2023/10/22 02:01:16;;;;;;;2.17;1.40;;;12.90;99.90;;;;;;4934313;28;88280;-33
2023/10/22 02:03:45;;;;;;;2.08;1.75;;;12.90;99.90;;;;;;4963385;28;89546;-33
2023/10/22 02:06:12;;;;;;;2.65;1.50;;;12.90;99.90;;;;;;4960318;28;89890;-33
2023/10/22 02:08:39;;;;;;;3.00;2.15;;;12.80;99.90;;;;;;4959423;28;89715;-30
2023/10/22 02:11:04;;;;;;;3.90;1.42;;;12.70;99.90;;;;;;4952185;28;89987;-33
2023/10/22 02:13:30;;;;;;;1.77;1.50;;;12.70;99.90;;;;;;4972999;28;90371;-32
2023/10/22 02:15:56;;;;;;;1.50;0.80;;;12.60;99.90;;;;;;4960818;28;89319;-31
2023/10/22 02:18:21;;;;;;;4.47;1.08;;;12.60;99.90;;;;;;4962258;28;89053;-32
2023/10/22 02:21:13;;;;;;;4.20;1.20;;;12.70;99.90;;;;;;4971599;28;88836;-33
2023/10/22 02:23:39;;;;;;;2.80;1.45;;;12.60;99.90;;;;;;4955817;28;89820;-33
2023/10/22 02:26:05;;;;;;;4.35;1.33;;;12.60;99.90;;;;;;4960436;28;89416;-34
2023/10/22 02:28:32;;;;;;;2.03;1.13;;;12.70;99.90;;;;;;4974020;28;90376;-31
2023/10/22 02:30:58;;;;;;;1.75;1.55;;;12.70;99.90;;;;;;4942857;28;91260;-34
2023/10/22 02:33:23;;;;;;;3.75;1.85;;;12.70;99.90;;;;;;4973269;28;90258;-34
2023/10/22 02:35:51;;;;;;;4.50;1.50;;;12.70;99.90;;;;;;4947798;28;90860;-29
2023/10/22 02:38:17;;;;;;;4.88;1.75;;;12.70;99.90;;;;;;4960206;28;89460;-32
2023/10/22 02:40:45;;;;;;;1.55;1.30;;;12.60;99.90;;;;;;4948043;28;89945;-31
2023/10/22 02:43:11;;;;;;;2.60;1.67;;;12.70;99.90;;;;;;4947496;28;90386;-31
2023/10/22 02:45:37;;;;;;;3.80;2.03;;;12.60;99.90;;;;;;4959158;28;90068;-31
2023/10/22 02:48:03;;;;;;;1.85;1.17;;;12.60;99.90;;;;;;4940577;28;88397;-33
2023/10/22 02:50:28;;;;;;;1.95;0.85;;;12.60;99.90;;;;;;4953096;28;88871;-31
2023/10/22 02:52:55;;;;;;;2.65;1.58;;;12.60;99.90;;;;;;4965669;28;90414;-34
2023/10/22 02:55:21;;;;;;;2.58;1.48;;;12.60;99.90;;;;;;4947096;28;89387;-32
2023/10/22 02:57:47;;;;;;;1.10;0.90;;;12.60;99.90;;;;;;4978871;28;88863;-32
2023/10/22 03:00:14;;;;;;;3.28;1.67;;;12.60;99.90;;;;;;4957696;28;89039;-31
2023/10/22 03:02:42;;;;;;;2.05;1.17;;;12.60;99.90;;;;;;4971679;28;89202;-31
2023/10/22 03:05:08;;;;;;;;;;;12.70;99.90;;;;;;4972793;28;88721;-34
2023/10/22 03:07:34;;;;;;;4.10;1.13;;;12.60;99.90;;;;;;4971345;28;89000;-33
2023/10/22 03:09:59;;;;;;;2.42;1.45;;;12.60;99.90;;;;;;4978482;28;89579;-34
2023/10/22 03:12:25;;;;;;;1.48;1.30;;;12.70;99.90;;;;;;4959903;28;90152;-33
2023/10/22 03:14:52;;;;;;;2.28;1.10;;;12.60;99.90;;;;;;4959212;28;90530;-34
2023/10/22 03:17:18;;;;;;;6.53;1.35;;;12.70;99.90;;;;;;4978397;28;89388;-32
2023/10/22 03:19:44;;;;;;;1.20;1.10;;;12.70;99.90;;;;;;4979440;28;89196;-33
2023/10/22 03:22:10;;;;;;;3.50;1.50;;;12.60;99.90;;;;;;4953397;28;89451;-32
2023/10/22 03:24:36;;;;;;;3.45;1.95;;;12.70;99.90;;;;;;4953433;28;90059;-31
2023/10/22 03:27:04;;;;;;;1.50;0.75;;;12.70;99.90;;;;;;4964145;28;91292;-33
2023/10/22 03:29:30;;;;;;;1.65;1.40;;;12.60;99.90;;;;;;4965854;28;88385;-33
2023/10/22 03:31:56;;;;;;;2.97;2.10;;;12.70;99.90;;;;;;4965973;28;89848;-30
2023/10/22 03:34:22;;;;;;;2.38;1.65;;;12.70;99.90;;;;;;4977760;28;89502;-33
2023/10/22 03:36:47;;;;;;;2.03;1.40;;;12.70;99.90;;;;;;4940101;28;89408;-32
2023/10/22 03:39:13;;;;;;;3.50;1.67;;;12.70;99.90;;;;;;4953991;28;87768;-33
2023/10/22 03:41:40;;;;;;;2.35;1.73;;;12.70;99.90;;;;;;4946790;28;90087;-34
2023/10/22 03:44:05;;;;;;;2.15;1.30;;;12.70;99.90;;;;;;4972809;28;90280;-31
2023/10/22 03:46:32;;;;;;;1.52;1.42;;;12.70;99.90;;;;;;4958919;28;89543;-34
2023/10/22 03:48:58;;;;;;;9.75;2.08;;;12.70;99.90;;;;;;4972063;28;90337;-32
2023/10/22 03:51:24;;;;;;;2.78;1.45;;;12.70;99.90;;;;;;4959548;28;89736;-33
2023/10/22 03:53:53;;;;;;;6.63;1.17;;;12.70;99.90;;;;;;4964863;28;89367;-30
2023/10/22 03:56:19;;;;;;;5.35;1.35;;;12.70;99.90;;;;;;4952282;28;88723;-32
2023/10/22 03:58:45;;;;;;;1.00;1.00;;;12.60;99.90;;;;;;4952582;28;89061;-31
2023/10/22 04:01:11;;;;;;;2.40;1.05;;;12.60;99.90;;;;;;4954084;28;90280;-32
2023/10/22 04:03:36;;;;;;;2.33;0.80;;;12.50;99.90;;;;;;4947591;28;89690;-31
2023/10/22 04:06:03;;;;;;;3.67;1.20;;;12.50;99.90;;;;;;4940904;28;90758;-33
2023/10/22 04:08:28;;;;;;;2.15;1.50;;;12.60;99.90;;;;;;4941380;28;88407;-31
2023/10/22 04:10:54;;;;;;;2.53;1.77;;;12.50;99.90;;;;;;4946792;28;90618;-33
2023/10/22 04:13:20;;;;;;;1.70;1.27;;;12.50;99.90;;;;;;4946501;28;90170;-32
2023/10/22 04:15:48;;;;;;;1.67;1.58;;;12.50;99.90;;;;;;4944539;28;89985;-34
2023/10/22 04:18:14;;;;;;;1.98;1.58;;;12.40;99.90;;;;;;4943261;28;88579;-33
2023/10/22 04:20:41;;;;;;;1.38;1.05;;;12.40;99.90;;;;;;4958887;28;90132;-32
2023/10/22 04:23:08;;;;;;;2.53;1.63;;;12.30;99.90;;;;;;4947836;28;88084;-32
2023/10/22 04:25:40;;;;;;;1.40;1.30;;;12.30;99.90;;;;;;4953156;28;88446;-33
2023/10/22 04:28:09;;;;;;;1.73;1.38;;;12.30;99.90;;;;;;4955697;28;89304;-33
2023/10/22 04:30:39;;;;;;;1.73;1.40;;;12.20;99.90;;;;;;4941499;28;90415;-30
2023/10/22 04:33:05;;;;;;;2.40;1.63;;;12.20;99.90;;;;;;4945182;28;89382;-31
2023/10/22 04:35:34;;;;;;;1.58;1.48;;;12.20;99.90;;;;;;4950458;28;89573;-32
2023/10/22 04:38:01;;;;;;;1.30;1.20;;;12.20;99.90;;;;;;4948465;28;88937;-33
2023/10/22 04:40:34;;;;;;;3.50;2.10;;;12.10;99.90;;;;;;4962473;28;91100;-32
2023/10/22 04:43:01;;;;;;;2.63;1.52;;;12.10;99.90;;;;;;4948028;28;88786;-33
2023/10/22 04:45:27;;;;;;;2.65;1.42;;;12.10;99.90;;;;;;4944227;28;90082;-31
2023/10/22 04:47:55;;;;;;;4.05;1.42;;;12.10;99.90;;;;;;4958767;28;89632;-32
2023/10/22 04:50:21;;;;;;;3.33;1.38;;;12.10;99.90;;;;;;4957847;28;89805;-30
2023/10/22 04:52:47;;;;;;;1.63;1.52;;;12.10;99.90;;;;;;4969656;28;89245;-30
2023/10/22 04:55:13;;;;;;;1.10;1.00;;;12.10;99.90;;;;;;4963122;28;89461;-33
2023/10/22 04:57:38;;;;;;;1.60;1.23;;;12.10;99.90;;;;;;4974386;28;87985;-30
2023/10/22 05:00:09;;;;;;;2.60;1.50;;;12.10;99.90;;;;;;4967970;28;89705;-32
2023/10/22 05:02:35;;;;;;;2.20;1.60;;;12.10;99.90;;;;;;4980595;28;90242;-32
2023/10/22 05:05:01;;;;;;;3.33;1.55;;;12.10;99.90;;;;;;4962539;28;90392;-34
2023/10/22 05:07:26;;;;;;;1.60;1.48;;;12.10;99.90;;;;;;4957265;28;89429;-33
2023/10/22 05:09:52;;;;;;;2.25;1.67;;;12.00;99.90;;;;;;4956097;28;90364;-33
2023/10/22 05:12:17;;;;;;;1.40;1.30;;;12.00;99.90;;;;;;4955469;28;89689;-31
2023/10/22 05:14:43;;;;;;;2.03;1.45;;;12.00;99.90;;;;;;4946372;28;89773;-32
2023/10/22 05:17:08;;;;;;;1.75;1.52;;;12.00;99.90;;;;;;4961608;28;89035;-33
2023/10/22 05:19:35;;;;;;;1.55;1.42;;;12.00;99.90;;;;;;4961485;28;90800;-31
2023/10/22 05:22:01;;;;;;;1.70;1.23;;;12.00;99.90;;;;;;4961100;28;89986;-34
2023/10/22 05:24:27;;;;;;;2.28;1.30;;;12.00;99.90;;;;;;4973237;28;89723;-32
2023/10/22 05:26:52;;;;;;;1.45;1.35;;;12.00;99.90;;;;;;4979268;28;90117;-33
2023/10/22 05:29:18;;;;;;;1.60;1.50;;;12.00;99.90;;;;;;4969622;28;90359;-34
2023/10/22 05:31:44;;;;;;;2.65;1.65;;;12.00;99.90;;;;;;4973069;28;90052;-33
2023/10/22 05:34:09;;;;;;;1.40;1.20;;;12.10;99.90;;;;;;4973554;28;89881;-33
2023/10/22 05:36:35;;;;;;;1.90;1.67;;;12.10;99.90;;;;;;4980520;28;89665;-32
2023/10/22 05:39:01;;;;;;;1.67;1.58;;;12.10;99.90;;;;;;4981635;28;90100;-33
2023/10/22 05:41:30;;;;;;;3.22;1.15;;;12.10;99.90;;;;;;4967125;28;90244;-32
2023/10/22 05:44:00;;;;;;;2.20;2.00;;;12.10;99.90;;;;;;4967778;28;89446;-34
2023/10/22 05:46:33;;;;;;;1.80;1.35;;;12.10;99.90;;;;;;4949648;28;89133;-33
2023/10/22 05:48:59;;;;;;;1.80;1.45;;;12.10;99.90;;;;;;4960159;28;89454;-34
2023/10/22 05:51:25;;;;;;;1.13;1.02;;;12.10;99.90;;;;;;5013779;22;90516;-32
2023/10/22 05:53:51;;;;;;;0.80;0.80;;;12.10;99.90;;;;;;4980390;28;90189;-32
2023/10/22 05:56:16;;;;;;;0.95;0.82;;;12.10;99.90;;;;;;4981752;28;89843;-32
2023/10/22 05:58:43;;;;;;;4.55;1.85;;;12.10;99.90;;;;;;4981486;28;90148;-32
2023/10/22 06:01:09;;;;;;;0.90;0.90;;;12.10;99.90;;;;;;4979994;28;88644;-34
2023/10/22 06:03:35;;;;;;;0.90;0.90;;;12.10;99.90;;;;;;4980708;28;89601;-33
2023/10/22 06:06:01;;;;;;;0.65;0.65;;;12.00;99.90;;;;;;4980671;28;88205;-33
2023/10/22 06:08:27;;;;;;;2.45;1.17;;;12.10;99.90;;;;;;4980703;28;89084;-32
2023/10/22 06:10:53;;;;;;;0.60;0.60;;;12.00;99.90;;;;;;4980868;28;90328;-31
2023/10/22 06:13:18;;;;;;;1.45;0.75;;;12.10;99.90;;;;;;4979668;28;90748;-33
2023/10/22 06:15:45;;;;;;;0.68;0.68;;;12.10;99.90;;;;;;4979927;28;90050;-31
2023/10/22 06:18:11;;;;;;;1.73;1.13;;;12.10;99.90;;;;;;4980353;28;89750;-32
2023/10/22 06:20:37;;;;;;;1.45;1.20;;;12.10;99.90;;;;;;4979584;28;90318;-34
2023/10/22 06:23:04;;;;;;;0.90;0.90;;;12.10;99.90;;;;;;4980821;28;90022;-34
2023/10/22 06:25:34;;;;;;;2.42;1.73;;;12.00;99.90;;;;;;4981117;28;89821;-33
2023/10/22 06:28:00;;;;;;;5.90;1.65;;;12.00;99.90;;;;;;4979483;28;89883;-33
2023/10/22 06:30:27;;;;;;;1.67;1.58;;;11.90;99.90;;;;;;4979557;28;89126;-34
2023/10/22 06:32:57;;;;;;;1.85;1.75;;;11.70;99.90;;;;;;4974232;28;90160;-32
2023/10/22 06:35:26;;;;;;;3.33;2.40;;;11.70;99.90;;;;;;4978103;28;89293;-32
2023/10/22 06:37:51;;;;;;;2.60;2.20;;;11.70;99.90;;;;;;4976608;28;90277;-33
2023/10/22 06:40:18;;;;;;;2.22;2.03;;;11.60;99.90;;;;;;4976289;28;91258;-33
2023/10/22 06:42:43;;;;;;;2.22;2.05;;;11.50;99.90;;;;;;4976522;28;90368;-35
2023/10/22 06:45:10;;;;;;;2.03;1.92;;;11.50;99.90;;;;;;4977353;28;89678;-34
2023/10/22 06:47:39;;;;;;;4.18;2.45;;;11.50;99.90;;;;;;4976457;28;90144;-34
2023/10/22 06:50:07;;;;;;;3.60;3.30;;;11.50;99.90;;;;;;4977216;28;89845;-33
2023/10/22 06:52:33;;;;;;;;;;;11.40;99.90;;;;;;4972438;28;89320;-35
2023/10/22 06:54:58;;;;;;;3.20;2.80;;;11.40;99.90;;;;;;4978153;28;88450;-31
2023/10/22 06:57:24;;;;;;;4.72;2.22;;;11.40;99.90;;;;;;4977327;28;89932;-30
2023/10/22 06:59:54;;;;;;;4.93;2.75;;;11.40;99.90;;;;;;4976593;28;89805;-33
2023/10/22 07:02:19;;;;;;;5.43;2.90;;;11.40;99.90;;;;;;4976469;28;89074;-33
2023/10/22 07:04:47;;;;;;;7.65;2.53;;;11.40;99.90;;;;;;4976893;28;90383;-33
2023/10/22 07:07:13;;;;;;;7.88;5.43;;;11.40;99.90;;;;;;4976906;28;89857;-34
2023/10/22 07:09:39;;;;;;;5.07;3.78;;;11.40;99.90;;;;;;4977201;28;90203;-33
2023/10/22 07:12:05;;;;;;;6.43;3.20;;;11.40;99.90;;;;;;4976538;28;89579;-33
2023/10/22 07:14:30;;;;;;;12.68;5.05;;;11.40;99.90;;;;;;4977556;28;87990;-33
2023/10/22 07:16:56;;;;;;;3.45;2.83;;;11.50;99.90;;;;;;4976823;28;90039;-34
2023/10/22 07:19:22;;;;;;;9.13;3.55;;;11.50;99.90;;;;;;4977099;28;88170;-32
2023/10/22 07:21:48;;;;;;;6.78;3.60;;;11.50;99.90;;;;;;4976522;28;89329;-33
2023/10/22 07:24:13;;;;;;;5.68;3.63;;;11.50;99.90;;;;;;4976963;28;88976;-34
2023/10/22 07:26:39;;;;;;;11.73;5.28;;;11.50;99.90;;;;;;4976569;28;90229;-32
2023/10/22 07:29:05;;;;;;;5.65;3.95;;;11.50;99.90;;;;;;4976673;28;90591;-33
2023/10/22 07:31:31;;;;;;;3.92;2.90;;;11.50;99.90;;;;;;4975852;28;90556;-33
2023/10/22 07:33:56;;;;;;;4.03;3.15;;;11.50;99.90;;;;;;4976698;28;90078;-32
2023/10/22 07:36:22;;;;;;;4.28;3.88;;;11.50;99.90;;;;;;4976067;28;88806;-32
2023/10/22 07:38:51;;;;;;;5.68;4.15;;;11.50;99.90;;;;;;4977071;28;89303;-33
2023/10/22 07:41:18;;;;;;;4.32;3.67;;;11.50;99.90;;;;;;4976113;28;89343;-32
2023/10/22 07:43:44;;;;;;;4.18;3.40;;;11.50;99.90;;;;;;4975418;28;88755;-33
2023/10/22 07:46:10;;;;;;;3.33;3.03;;;11.50;99.90;;;;;;4977116;28;90474;-32
2023/10/22 07:48:38;;;;;;;3.73;2.73;;;11.50;99.90;;;;;;4976567;28;88978;-33
2023/10/22 07:51:18;;;;;;;3.38;3.08;;;11.60;99.90;;;;;;4976082;28;91663;-32
2023/10/22 07:53:45;;;;;;;6.55;2.92;;;11.50;99.90;;;;;;4975820;28;89225;-32
2023/10/22 07:56:12;;;;;;;3.42;2.28;;;11.50;99.90;;;;;;4958363;28;90178;-31
2023/10/22 07:58:38;;;;;;;4.47;4.07;;;11.50;99.90;;;;;;4973241;28;88485;-32
2023/10/22 08:01:06;;;;;;;6.15;3.35;;;11.60;99.90;;;;;;4973459;28;89789;-32
2023/10/22 08:03:32;;;;;;;3.30;2.67;;;11.60;99.90;;;;;;4975813;28;88670;-33
2023/10/22 08:05:58;;;;;;;3.45;3.15;;;11.60;99.90;;;;;;4975809;28;90093;-32
2023/10/22 08:08:24;;;;;;;7.97;3.78;;;11.70;99.90;;;;;;4975634;28;89843;-34
2023/10/22 08:10:50;;;;;;;4.30;2.83;;;11.70;99.90;;;;;;4975492;28;89326;-33
2023/10/22 08:13:17;;;;;;;4.53;3.65;;;11.70;99.90;;;;;;4976486;28;89381;-33
2023/10/22 08:15:43;;;;;;;6.75;3.72;;;11.70;99.90;;;;;;4975387;28;90650;-31
2023/10/22 08:18:09;;;;;;;5.28;3.75;;;11.70;99.90;;;;;;4975186;28;90895;-34
2023/10/22 08:20:37;;;;;;;11.88;3.75;;;11.70;99.90;;;;;;4975673;28;90353;-33
2023/10/22 08:23:03;;;;;;;;;;;11.80;99.90;;;;;;4977283;28;90325;-30
2023/10/22 08:25:29;;;;;;;3.60;2.97;;;11.80;99.90;;;;;;4977524;28;89826;-33
2023/10/22 08:27:55;;;;;;;5.72;3.45;;;11.80;99.90;;;;;;4975122;28;89655;-33
2023/10/22 08:30:21;;;;;;;10.50;3.58;;;11.80;99.90;;;;;;4975897;28;90663;-33
2023/10/22 08:32:47;;;;;;;3.25;2.40;;;11.90;99.90;;;;;;4974825;28;90028;-31
2023/10/22 08:35:13;;;;;;;6.15;3.20;;;11.90;99.90;;;;;;4977280;28;90845;-33
2023/10/22 08:37:39;;;;;;;5.25;4.75;;;11.90;99.90;;;;;;4975218;28;89277;-32
2023/10/22 08:40:08;;;;;;;6.63;4.05;;;12.00;99.90;;;;;;4975554;28;88892;-33
2023/10/22 08:42:35;;;;;;;4.63;3.42;;;12.00;99.90;;;;;;4974639;28;89698;-34
2023/10/22 08:45:06;;;;;;;9.80;4.22;;;12.00;99.90;;;;;;4959378;28;89001;-31
2023/10/22 08:47:34;;;;;;;9.57;3.95;;;12.10;99.90;;;;;;4975878;28;90539;-31
2023/10/22 08:50:00;;;;;;;6.63;5.85;;;12.10;99.90;;;;;;4975239;28;91137;-34
2023/10/22 08:52:27;;;;;;;6.97;4.13;;;12.20;99.90;;;;;;4975040;28;88890;-33
2023/10/22 08:54:53;;;;;;;7.47;4.55;;;12.30;99.90;;;;;;4975102;28;89278;-34
2023/10/22 08:57:20;;;;;;;14.70;5.15;;;12.30;99.90;;;;;;4976153;28;90621;-31
2023/10/22 08:59:47;;;;;;;7.97;5.67;;;12.30;99.90;;;;;;4975342;28;89465;-32
2023/10/22 09:02:21;;;;;;;5.28;4.00;;;12.40;99.90;;;;;;4974882;28;89253;-32
2023/10/22 09:04:47;;;;;;;6.22;4.57;;;12.50;99.90;;;;;;4971911;28;90428;-32
2023/10/22 09:07:12;;;;;;;4.30;3.90;;;12.50;99.90;;;;;;4974601;28;90558;-33
2023/10/22 09:09:39;;;;;;;3.83;3.42;;;12.70;99.90;;;;;;4975493;28;90572;-32
2023/10/22 09:12:10;;;;;;;9.20;5.65;;;12.70;99.90;;;;;;4975030;28;89436;-34
2023/10/22 09:14:36;;;;;;;4.07;3.53;;;12.70;99.90;;;;;;4975392;28;90256;-33
2023/10/22 09:17:19;;;;;;;6.22;4.97;;;12.80;99.90;;;;;;4974781;28;89097;-32
2023/10/22 09:19:48;;;;;;;10.45;3.80;;;12.80;99.90;;;;;;4975437;28;89471;-32
2023/10/22 09:22:27;;;;;;;6.28;4.85;;;12.90;99.90;;;;;;4962908;28;89426;-33
2023/10/22 09:24:57;;;;;;;6.32;5.07;;;12.90;99.90;;;;;;4976793;28;90422;-34
2023/10/22 09:27:31;;;;;;;5.65;3.70;;;13.00;99.90;;;;;;4955363;28;88990;-33
2023/10/22 09:30:02;;;;;;;3.97;3.58;;;13.20;99.90;;;;;;4977812;28;90040;-35
2023/10/22 09:32:27;;;;;;;6.57;4.30;;;13.10;99.90;;;;;;4977751;28;89822;-32
2023/10/22 09:34:53;;;;;;;7.00;4.88;;;13.20;99.90;;;;;;4978364;28;90607;-30
2023/10/22 09:37:19;;;;;;;3.72;3.42;;;13.30;99.90;;;;;;4978440;28;89451;-33
2023/10/22 09:39:45;;;;;;;10.25;5.18;;;13.30;99.90;;;;;;4978891;28;89697;-32
2023/10/22 09:42:17;;;;;;;5.88;4.20;;;13.40;99.90;;;;;;4978545;28;89711;-31
2023/10/22 09:44:46;;;;;;;4.57;3.42;;;13.40;99.90;;;;;;4978929;28;88837;-31
2023/10/22 09:47:20;;;;;;;10.25;5.20;;;13.40;99.90;;;;;;4972296;28;90318;-32
2023/10/22 09:49:51;;;;;;;6.40;4.18;;;13.30;99.90;;;;;;4975676;28;89202;-34
2023/10/22 09:52:20;;;;;;;6.65;4.20;;;13.30;99.90;;;;;;4973806;28;89284;-30
2023/10/22 09:54:50;;;;;;;4.25;2.97;;;13.40;99.90;;;;;;4977312;28;88832;-30
2023/10/22 09:57:17;;;;;;;8.27;4.20;;;13.40;99.90;;;;;;4977468;28;89244;-32
2023/10/22 09:59:44;;;;;;;10.75;4.53;;;13.40;99.90;;;;;;4977765;28;90570;-31
2023/10/22 10:02:19;;;;;;;4.25;3.70;;;13.50;99.90;;;;;;4977959;28;88437;-34
2023/10/22 10:04:47;;;;;;;10.82;3.20;;;13.50;99.90;;;;;;4976899;28;90187;-31
2023/10/22 10:07:13;;;;;;;11.73;5.28;;;13.50;99.90;;;;;;4978006;28;90305;-32
2023/10/22 10:09:41;;;;;;;6.70;4.47;;;13.50;99.90;;;;;;4975915;28;89789;-32
2023/10/22 10:12:13;;;;;;;5.07;4.57;;;13.50;99.90;;;;;;4977996;28;89128;-33
2023/10/22 10:14:44;;;;;;;3.17;2.53;;;13.50;99.90;;;;;;4977429;28;90160;-32
2023/10/22 10:17:10;;;;;;;6.47;4.15;;;13.60;99.90;;;;;;4978456;28;89229;-33
2023/10/22 10:19:37;;;;;;;3.22;2.58;;;13.60;99.90;;;;;;4977793;28;89277;-33
2023/10/22 10:22:03;;;;;;;4.07;3.08;;;13.70;99.90;;;;;;4976412;28;89571;-32
2023/10/22 10:24:30;;;;;;;4.22;3.83;;;13.70;99.90;;;;;;4977772;28;90024;-32
2023/10/22 10:26:56;;;;;;;5.67;3.30;;;13.70;99.90;;;;;;4977470;28;89683;-33
2023/10/22 10:29:30;;;;;;;3.40;3.20;;;13.60;99.90;;;;;;4975162;28;89277;-31
2023/10/22 10:32:15;;;;;;;3.83;3.50;;;13.60;99.90;;;;;;4975249;28;89202;-33
2023/10/22 10:34:43;;;;;;;5.53;4.38;;;13.60;99.90;;;;;;4959025;28;89009;-31
2023/10/22 10:37:27;;;;;;;4.25;3.40;;;13.70;99.90;;;;;;4973932;28;90525;-31
2023/10/22 10:39:53;;;;;;;3.90;2.92;;;13.90;99.90;;;;;;4975570;28;89555;-31
2023/10/22 10:42:31;;;;;;;3.67;2.80;;;14.00;99.90;;;;;;4977710;28;89296;-32
2023/10/22 10:44:57;;;;;;;6.15;3.33;;;13.90;99.90;;;;;;4975334;28;89098;-31
2023/10/22 10:47:22;;;;;;;5.07;3.55;;;13.80;99.90;;;;;;4977307;28;88938;-34
2023/10/22 10:49:53;;;;;;;4.50;4.10;;;13.70;99.90;;;;;;4976710;28;89833;-33
2023/10/22 10:52:19;;;;;;;3.85;3.45;;;13.60;99.90;;;;;;4977207;28;89276;-31
2023/10/22 10:55:10;;;;;;;6.47;4.05;;;13.60;99.90;;;;;;4977986;28;90296;-33
2023/10/22 10:57:50;;;;;;;6.95;3.58;;;13.60;99.90;;;;;;4976935;28;89850;-30
2023/10/22 11:00:21;;;;;;;6.05;4.82;;;13.50;99.90;;;;;;4958915;28;89912;-32
2023/10/22 11:02:47;;;;;;;4.47;4.10;;;13.40;99.90;;;;;;4976969;28;89411;-32
2023/10/22 11:05:14;;;;;;;5.18;4.30;;;13.40;99.90;;;;;;4977394;28;90188;-34
2023/10/22 11:07:42;;;;;;;4.50;4.03;;;13.40;99.90;;;;;;4976278;28;90037;-31
2023/10/22 11:10:09;;;;;;;5.57;4.47;;;13.30;99.90;;;;;;4977060;28;88987;-32
2023/10/22 11:12:38;;;;;;;5.63;3.80;;;13.40;99.90;;;;;;4976843;28;90306;-32
2023/10/22 11:15:05;;;;;;;4.47;3.60;;;13.40;99.90;;;;;;4975903;28;89276;-32
2023/10/22 11:17:31;;;;;;;8.25;3.45;;;13.40;99.90;;;;;;4976946;28;89275;-32
2023/10/22 11:19:57;;;;;;;4.85;3.08;;;13.40;99.90;;;;;;4976125;28;89629;-32
2023/10/22 11:22:23;;;;;;;5.78;3.95;;;13.40;99.90;;;;;;4976349;28;87992;-32
2023/10/22 11:24:51;;;;;;;3.90;3.45;;;13.40;99.90;;;;;;4975577;28;90077;-34
2023/10/22 11:27:18;;;;;;;5.63;3.57;;;13.40;99.90;;;;;;4976935;28;88073;-33
2023/10/22 11:29:48;;;;;;;4.55;2.47;;;13.40;99.90;;;;;;4976732;28;89767;-31
2023/10/22 11:32:19;;;;;;;7.70;3.45;;;13.30;99.90;;;;;;4977407;28;88249;-33
2023/10/22 11:34:51;;;;;;;3.95;2.88;;;13.30;99.90;;;;;;4976633;28;88452;-32
2023/10/22 11:37:21;;;;;;;6.28;3.20;;;13.20;99.90;;;;;;4975971;28;89567;-34
2023/10/22 11:39:47;;;;;;;3.10;2.70;;;13.20;99.90;;;;;;4975539;28;90395;-33
2023/10/22 11:42:13;;;;;;;3.38;3.08;;;13.10;99.90;;;;;;4976909;28;89309;-33
2023/10/22 11:44:43;;;;;;;2.55;2.33;;;13.10;99.90;;;;;;4975865;28;89826;-32
2023/10/22 11:47:26;;;;;;;4.00;2.35;;;13.10;99.90;;;;;;4976009;28;90929;-33
2023/10/22 11:49:52;;;;;;;5.22;2.90;;;13.10;99.90;;;;;;4964822;28;88915;-31
2023/10/22 11:52:51;;;;;;;2.35;2.15;;;13.10;99.90;;;;;;4976325;28;89950;-31
2023/10/22 11:55:18;;;;;;;2.72;2.53;;;13.00;99.90;;;;;;4977161;28;90450;-31
2023/10/22 11:57:44;;;;;;;5.38;2.75;;;13.00;99.90;;;;;;4975307;28;89421;-32
2023/10/22 12:00:10;;;;;;;5.07;2.70;;;13.00;99.90;;;;;;4975634;28;88780;-30
2023/10/22 12:02:36;;;;;;;4.97;2.70;;;13.10;99.90;;;;;;4956699;28;88929;-34
2023/10/22 12:05:02;;;;;;;2.80;2.42;;;13.20;99.90;;;;;;4975901;28;90076;-34
2023/10/22 12:07:28;;;;;;;6.22;3.33;;;13.20;99.90;;;;;;4976968;28;90201;-33
2023/10/22 12:09:54;;;;;;;4.82;3.25;;;13.20;99.90;;;;;;4975162;28;89883;-33
2023/10/22 12:12:23;;;;;;;3.67;3.40;;;13.30;99.90;;;;;;4975599;28;89409;-32
2023/10/22 12:14:49;;;;;;;5.60;3.40;;;13.30;99.90;;;;;;4976243;28;90472;-32
2023/10/22 12:17:16;;;;;;;4.25;3.88;;;13.30;99.90;;;;;;4976607;28;90550;-31
2023/10/22 12:19:42;;;;;;;6.53;3.10;;;13.40;99.90;;;;;;4975918;28;89558;-33
2023/10/22 12:22:07;;;;;;;4.75;3.42;;;13.40;99.90;;;;;;4975450;28;89550;-34
2023/10/22 12:24:33;;;;;;;3.72;3.13;;;13.40;99.90;;;;;;4970471;28;90559;-34
2023/10/22 12:26:59;;;;;;;2.97;2.13;;;13.40;99.90;;;;;;4974128;28;90678;-34
2023/10/22 12:29:25;;;;;;;3.15;2.30;;;13.30;99.90;;;;;;4976902;28;90779;-32
2023/10/22 12:31:51;;;;;;;6.45;2.72;;;13.30;99.90;;;;;;4957207;28;89140;-31
2023/10/22 12:34:18;;;;;;;3.08;2.22;;;13.30;99.90;;;;;;4975455;28;90086;-34
2023/10/22 12:36:44;;;;;;;2.70;2.42;;;13.30;99.90;;;;;;4975410;28;88234;-33
2023/10/22 12:39:10;;;;;;;3.10;2.60;;;13.30;99.90;;;;;;4956567;28;90548;-34
2023/10/22 12:41:36;;;;;;;4.60;2.25;;;13.40;99.90;;;;;;4975984;28;91431;-31
2023/10/22 12:44:03;;;;;;;5.32;2.50;;;13.50;99.90;;;;;;4974489;28;90217;-33
2023/10/22 12:46:29;;;;;;;6.90;2.95;;;13.70;99.90;;;;;;4975441;28;89579;-32
2023/10/22 12:48:55;;;;;;;3.28;2.60;;;13.80;99.90;;;;;;4974408;28;89107;-33